Terminal Aerodrome Forecast
Issued by NWS Denver/Boulder, CO

Home | Current Version | Previous Version | Text Only | Print | Product List | Glossary On
Versions: 1 2 3 4 5 6 7 8 9 10 11 12 13 14 15 16 17 18 19 20 21 22 23 24 25 26 27 28 29 30 31 32 33 34 35 36 37 38 39 40 41 42 43 44 45 46 47 48 49 50
000
FTUS45 KBOU 012327
TAFDEN
TAF
KDEN 012327Z 0200/0306 18009KT P6SM SCT025 SCT040 SCT250
     FM020200 19007KT P6SM BKN250
     FM020600 21010KT P6SM BKN110 BKN200
     FM021500 24006KT P6SM SCT120 BKN220
     FM022100 VRB05KT P6SM SCT120 SCT200
     FM030200 19010KT P6SM FEW110 SCT200=

USA.gov is the U.S. government's official web portal to all federal, state and local government web resources and services.